Time;durP1;ratioP1;P1;durP2;ratioP2;P2;SDS_P1;SDS_P2;PMS_P1;PMS_P2;Temp;Humidity;BMP_temperature;BMP_pressure;BME280_temperature;BME280_humidity;BME280_pressure;Samples;Min_cycle;Max_cycle;Signal;HPM_P1;HPM_P2
2022/01/04 00:01:32;;;;;;;;;1.50;1.50;;;;;;;;5293145;27;8766;-71
2022/01/04 00:04:03;;;;;;;;;1.80;1.80;;;;;;;;5277668;27;8790;-72
2022/01/04 00:06:34;;;;;;;;;0.00;0.00;;;;;;;;5293493;27;8793;-72
2022/01/04 00:09:24;;;;;;;;;2.20;2.20;;;;;;;;5278543;27;8785;-72
2022/01/04 00:14:26;;;;;;;;;1.00;1.00;;;;;;;;5311429;27;8858;-73
2022/01/04 00:16:58;;;;;;;;;6.20;6.20;;;;;;;;5276562;27;8770;-72
2022/01/04 00:19:29;;;;;;;;;3.40;3.40;;;;;;;;5293408;27;8805;-72
2022/01/04 00:22:01;;;;;;;;;3.40;3.40;;;;;;;;5293371;27;8812;-71
2022/01/04 00:24:32;;;;;;;;;3.40;3.40;;;;;;;;5255107;27;8811;-71
2022/01/04 00:27:22;;;;;;;;;3.00;3.00;;;;;;;;5295980;27;9623;-72
2022/01/04 00:29:54;;;;;;;;;2.00;2.00;;;;;;;;5293226;27;9488;-72
2022/01/04 00:32:25;;;;;;;;;3.00;3.00;;;;;;;;5271636;28;8796;-72
2022/01/04 00:34:56;;;;;;;;;1.00;1.00;;;;;;;;5275691;27;8838;-72
2022/01/04 00:37:27;;;;;;;;;0.20;0.20;;;;;;;;5275701;27;8806;-72
2022/01/04 00:39:59;;;;;;;;;0.60;0.60;;;;;;;;5271501;28;8918;-72
2022/01/04 00:42:30;;;;;;;;;2.40;2.40;;;;;;;;5292493;27;8785;-72
2022/01/04 00:45:20;;;;;;;;;2.60;2.60;;;;;;;;5278467;27;8790;-72
2022/01/04 00:50:43;;;;;;;;;1.80;1.80;;;;;;;;5310551;27;9505;-73
2022/01/04 00:53:14;;;;;;;;;3.60;3.40;;;;;;;;5292529;27;8779;-73
2022/01/04 00:55:45;;;;;;;;;0.00;0.00;;;;;;;;5310772;27;8854;-73
2022/01/04 00:58:16;;;;;;;;;1.80;1.80;;;;;;;;5311228;27;8846;-72
2022/01/04 01:00:48;;;;;;;;;4.00;3.80;;;;;;;;5275669;27;8762;-72
2022/01/04 01:03:19;;;;;;;;;7.60;7.40;;;;;;;;5292213;27;8883;-70
2022/01/04 01:05:50;;;;;;;;;4.80;4.40;;;;;;;;5274969;27;9554;-71
2022/01/04 01:08:21;;;;;;;;;3.20;3.20;;;;;;;;5275027;27;8775;-72
2022/01/04 01:10:52;;;;;;;;;4.00;4.00;;;;;;;;5291844;27;8892;-72
2022/01/04 01:13:23;;;;;;;;;0.80;0.80;;;;;;;;5258660;27;8786;-74
2022/01/04 01:15:54;;;;;;;;;7.00;7.00;;;;;;;;5293178;27;8774;-74
2022/01/04 01:18:25;;;;;;;;;0.00;0.00;;;;;;;;5259489;27;11327;-75
2022/01/04 01:20:57;;;;;;;;;5.60;5.60;;;;;;;;5258305;27;8786;-74
2022/01/04 01:23:46;;;;;;;;;3.00;3.00;;;;;;;;5310148;27;8926;-73
2022/01/04 01:26:17;;;;;;;;;1.00;1.00;;;;;;;;5291885;27;8806;-73
2022/01/04 01:28:48;;;;;;;;;1.00;1.00;;;;;;;;5310216;27;9472;-73
2022/01/04 01:31:19;;;;;;;;;2.60;2.60;;;;;;;;5274672;27;8897;-73
2022/01/04 01:33:50;;;;;;;;;3.80;3.80;;;;;;;;5291753;27;8770;-73
2022/01/04 01:36:21;;;;;;;;;1.00;1.00;;;;;;;;5274301;27;8770;-74
2022/01/04 01:39:10;;;;;;;;;2.60;2.60;;;;;;;;5277595;27;8762;-74
2022/01/04 01:41:59;;;;;;;;;0.20;0.20;;;;;;;;5310135;27;8778;-74
2022/01/04 01:44:31;;;;;;;;;3.00;3.00;;;;;;;;5274259;27;8786;-74
2022/01/04 01:47:02;;;;;;;;;1.80;1.80;;;;;;;;5291439;27;11423;-73
2022/01/04 01:49:52;;;;;;;;;4.00;4.00;;;;;;;;5276914;27;8766;-73
2022/01/04 01:52:23;;;;;;;;;3.00;3.00;;;;;;;;5308358;27;8843;-73
2022/01/04 01:54:54;;;;;;;;;1.00;1.00;;;;;;;;5274372;27;8767;-73
2022/01/04 01:57:25;;;;;;;;;0.00;0.00;;;;;;;;5257523;27;8816;-73
2022/01/04 01:59:57;;;;;;;;;0.80;0.80;;;;;;;;5257713;27;8794;-72
2022/01/04 02:02:29;;;;;;;;;2.20;2.20;;;;;;;;5274938;27;8778;-71
2022/01/04 02:05:01;;;;;;;;;1.00;1.00;;;;;;;;5274079;27;9469;-72
2022/01/04 02:07:35;;;;;;;;;0.00;0.00;;;;;;;;5291799;27;8865;-72
2022/01/04 02:10:24;;;;;;;;;1.00;1.00;;;;;;;;5291178;27;8778;-71
2022/01/04 02:12:55;;;;;;;;;0.00;0.00;;;;;;;;5273909;27;8859;-71
2022/01/04 02:15:29;;;;;;;;;3.80;3.80;;;;;;;;5257965;27;11352;-72
2022/01/04 02:18:00;;;;;;;;;3.40;3.40;;;;;;;;5291015;27;8774;-71
2022/01/04 02:20:50;;;;;;;;;1.80;1.80;;;;;;;;5276770;27;8766;-73
2022/01/04 02:23:21;;;;;;;;;3.75;3.00;;;;;;;;5274114;27;8819;-72
2022/01/04 02:25:52;;;;;;;;;0.00;0.00;;;;;;;;5257262;27;9931;-72
2022/01/04 02:28:24;;;;;;;;;1.00;1.00;;;;;;;;5274258;27;8775;-72
2022/01/04 02:30:55;;;;;;;;;1.00;1.00;;;;;;;;5309781;27;8847;-72
2022/01/04 02:33:26;;;;;;;;;3.20;3.20;;;;;;;;5290679;27;8774;-71
2022/01/04 02:35:57;;;;;;;;;0.00;0.00;;;;;;;;5257817;27;8794;-71
2022/01/04 02:38:28;;;;;;;;;1.00;1.00;;;;;;;;5274359;27;9974;-71
2022/01/04 02:41:02;;;;;;;;;0.60;0.60;;;;;;;;5274072;27;8850;-73
2022/01/04 02:43:33;;;;;;;;;2.20;2.20;;;;;;;;5273971;27;8790;-70
2022/01/04 02:46:04;;;;;;;;;0.00;0.00;;;;;;;;5290550;27;8802;-70
2022/01/04 02:48:45;;;;;;;;;0.00;0.00;;;;;;;;5260926;27;9988;-72
2022/01/04 02:51:18;;;;;;;;;1.00;1.00;;;;;;;;5277938;27;11378;-72
2022/01/04 02:53:50;;;;;;;;;0.00;0.00;;;;;;;;5261680;27;8766;-71
2022/01/04 02:56:20;;;;;;;;;3.00;3.00;;;;;;;;5277877;27;9473;-72
2022/01/04 02:58:52;;;;;;;;;0.50;0.50;;;;;;;;5260927;27;8822;-72
2022/01/04 03:01:23;;;;;;;;;5.20;5.20;;;;;;;;5277623;27;9591;-72
2022/01/04 03:03:54;;;;;;;;;1.50;1.50;;;;;;;;5278056;27;8893;-71
2022/01/04 03:06:25;;;;;;;;;3.25;3.25;;;;;;;;5294756;27;11386;-69
2022/01/04 03:08:56;;;;;;;;;1.00;1.00;;;;;;;;5260650;27;11036;-69
2022/01/04 03:11:27;;;;;;;;;9.60;9.60;;;;;;;;5261369;27;8798;-70
2022/01/04 03:13:58;;;;;;;;;7.00;7.00;;;;;;;;5294516;27;8786;-69
2022/01/04 03:16:29;;;;;;;;;11.25;11.00;;;;;;;;5276939;27;8838;-69
2022/01/04 03:21:35;;;;;;;;;5.50;5.50;;;;;;;;5294473;27;11417;-69
2022/01/04 03:24:07;;;;;;;;;4.00;4.00;;;;;;;;5277709;27;9533;-69
2022/01/04 03:26:39;;;;;;;;;4.00;4.00;;;;;;;;5276758;27;8798;-69
2022/01/04 03:29:12;;;;;;;;;6.20;6.20;;;;;;;;5277309;27;8770;-69
2022/01/04 03:31:44;;;;;;;;;10.00;10.00;;;;;;;;5294338;27;9478;-69
2022/01/04 03:34:15;;;;;;;;;6.50;6.50;;;;;;;;5293987;27;8813;-70
2022/01/04 03:36:46;;;;;;;;;7.00;6.50;;;;;;;;5276896;27;8771;-70
2022/01/04 03:39:17;;;;;;;;;8.20;8.20;;;;;;;;5294059;27;11418;-70
2022/01/04 03:41:50;;;;;;;;;3.50;3.50;;;;;;;;5277198;27;8777;-69
2022/01/04 03:44:21;;;;;;;;;0.00;0.00;;;;;;;;5259879;27;8793;-69
2022/01/04 03:46:53;;;;;;;;;7.60;7.40;;;;;;;;5293346;27;8782;-69
2022/01/04 03:49:25;;;;;;;;;6.80;6.80;;;;;;;;5276920;27;8797;-70
2022/01/04 03:51:56;;;;;;;;;4.00;4.00;;;;;;;;5293545;27;8770;-71
2022/01/04 03:54:28;;;;;;;;;0.40;0.40;;;;;;;;5276561;27;8900;-72
2022/01/04 03:57:00;;;;;;;;;12.00;12.00;;;;;;;;5293723;27;8790;-70
2022/01/04 03:59:33;;;;;;;;;10.20;10.20;;;;;;;;5276116;27;8886;-70
2022/01/04 04:02:04;;;;;;;;;1.00;1.00;;;;;;;;5276159;27;8797;-71
2022/01/04 04:04:35;;;;;;;;;14.00;12.75;;;;;;;;5259508;27;8775;-73
2022/01/04 04:07:06;;;;;;;;;9.00;8.50;;;;;;;;5276516;27;8778;-72
2022/01/04 04:09:56;;;;;;;;;12.00;12.00;;;;;;;;5311380;27;8770;-71
2022/01/04 04:12:27;;;;;;;;;5.50;5.50;;;;;;;;5293247;27;8794;-74
2022/01/04 04:15:03;;;;;;;;;7.25;6.50;;;;;;;;5276321;27;8793;-71
2022/01/04 04:17:35;;;;;;;;;7.00;7.00;;;;;;;;5293159;27;8746;-73
2022/01/04 04:20:07;;;;;;;;;8.50;7.00;;;;;;;;5259713;27;8784;-72
2022/01/04 04:22:38;;;;;;;;;12.00;12.00;;;;;;;;5275931;27;8818;-72
2022/01/04 04:25:09;;;;;;;;;11.00;11.00;;;;;;;;5292753;27;8770;-72
2022/01/04 04:27:41;;;;;;;;;10.50;10.00;;;;;;;;5259052;27;8797;-71
2022/01/04 04:30:13;;;;;;;;;10.50;10.50;;;;;;;;5292774;27;8762;-71
2022/01/04 04:32:44;;;;;;;;;8.50;8.50;;;;;;;;5275938;27;8762;-71
2022/01/04 04:35:33;;;;;;;;;12.00;10.50;;;;;;;;5310855;27;8873;-71
2022/01/04 04:38:06;;;;;;;;;6.00;6.00;;;;;;;;5311210;27;8982;-71
2022/01/04 04:40:37;;;;;;;;;6.25;6.25;;;;;;;;5292620;27;8924;-71
2022/01/04 04:43:08;;;;;;;;;6.33;6.33;;;;;;;;5259057;27;9002;-71
2022/01/04 04:45:39;;;;;;;;;9.00;9.00;;;;;;;;5275793;27;8801;-71
2022/01/04 04:48:10;;;;;;;;;8.50;8.50;;;;;;;;5292610;27;8917;-71
2022/01/04 04:50:41;;;;;;;;;9.33;9.33;;;;;;;;5310697;27;9010;-71
2022/01/04 04:53:12;;;;;;;;;6.33;6.33;;;;;;;;5258980;27;8806;-71
2022/01/04 04:55:43;;;;;;;;;7.00;7.00;;;;;;;;5275660;27;11481;-71
2022/01/04 04:58:32;;;;;;;;;8.00;8.00;;;;;;;;5310835;27;8806;-71
2022/01/04 05:01:03;;;;;;;;;4.00;4.00;;;;;;;;5258350;27;8812;-71
2022/01/04 05:03:34;;;;;;;;;6.25;6.25;;;;;;;;5275282;27;8774;-69
2022/01/04 05:06:05;;;;;;;;;7.67;7.67;;;;;;;;5275424;27;11438;-70
2022/01/04 05:08:36;;;;;;;;;17.33;16.00;;;;;;;;5275458;27;12012;-71
2022/01/04 05:11:07;;;;;;;;;6.40;6.00;;;;;;;;5274911;27;8944;-70
2022/01/04 05:13:38;;;;;;;;;18.00;16.00;;;;;;;;5275020;27;8893;-70
2022/01/04 05:16:09;;;;;;;;;12.67;12.67;;;;;;;;5310219;27;11438;-69
2022/01/04 05:18:40;;;;;;;;;20.75;19.25;;;;;;;;5274829;27;10549;-69
2022/01/04 05:21:11;;;;;;;;;12.60;12.60;;;;;;;;5292188;27;8809;-72
2022/01/04 05:23:42;;;;;;;;;27.75;27.25;;;;;;;;5275216;27;8792;-71
2022/01/04 05:26:13;;;;;;;;;1.00;1.00;;;;;;;;5291778;27;9615;-72
2022/01/04 05:28:45;;;;;;;;;15.00;14.50;;;;;;;;5289532;27;8774;-71
2022/01/04 05:31:16;;;;;;;;;9.50;9.50;;;;;;;;5270608;28;8797;-72
2022/01/04 05:33:47;;;;;;;;;10.75;10.75;;;;;;;;5270304;28;8932;-72
2022/01/04 05:36:19;;;;;;;;;3.80;3.80;;;;;;;;5287359;28;8962;-71
2022/01/04 05:38:50;;;;;;;;;3.00;3.00;;;;;;;;5287803;28;8805;-69
2022/01/04 05:41:39;;;;;;;;;9.00;9.00;;;;;;;;5273294;28;8800;-73
2022/01/04 05:48:32;;;;;;;;;9.60;9.00;;;;;;;;5288116;28;9920;-70
2022/01/04 05:55:26;;;;;;;;;15.50;15.50;;;;;;;;5300423;27;8698;-71
2022/01/04 05:57:57;;;;;;;;;21.33;21.00;;;;;;;;5291373;27;8853;-71
2022/01/04 06:00:28;;;;;;;;;10.75;10.75;;;;;;;;5292211;27;8789;-71
2022/01/04 06:03:00;;;;;;;;;14.50;14.00;;;;;;;;5274246;27;8778;-73
2022/01/04 06:05:31;;;;;;;;;9.40;9.40;;;;;;;;5274337;27;8896;-69
2022/01/04 06:14:58;;;;;;;;;10.25;10.25;;;;;;;;5291170;27;8795;-70
2022/01/04 06:17:30;;;;;;;;;6.00;6.00;;;;;;;;5291112;27;8896;-70
2022/01/04 06:20:04;;;;;;;;;3.00;3.00;;;;;;;;5291592;27;8769;-71
2022/01/04 06:22:36;;;;;;;;;5.60;4.40;;;;;;;;5294921;27;8778;-69
2022/01/04 06:25:10;;;;;;;;;11.60;11.60;;;;;;;;5278672;27;8778;-68
2022/01/04 06:27:46;;;;;;;;;14.50;13.00;;;;;;;;5278277;27;8813;-68
2022/01/04 06:30:18;;;;;;;;;16.50;16.50;;;;;;;;5295393;27;8864;-68
2022/01/04 06:32:50;;;;;;;;;24.00;22.00;;;;;;;;5277954;27;8794;-69
2022/01/04 06:35:22;;;;;;;;;24.25;23.00;;;;;;;;5278650;27;8774;-69
2022/01/04 06:37:53;;;;;;;;;28.75;26.50;;;;;;;;5314186;27;8793;-69
2022/01/04 06:40:24;;;;;;;;;22.50;22.25;;;;;;;;5294862;27;8755;-72
2022/01/04 06:42:55;;;;;;;;;25.25;23.50;;;;;;;;5261808;27;8780;-70
2022/01/04 06:49:49;;;;;;;;;12.75;12.75;;;;;;;;5312866;27;8738;-69
2022/01/04 06:52:39;;;;;;;;;14.75;14.25;;;;;;;;5314184;27;8778;-71
2022/01/04 06:55:10;;;;;;;;;18.67;15.67;;;;;;;;5277494;27;8794;-70
2022/01/04 06:57:42;;;;;;;;;13.25;13.25;;;;;;;;5294247;27;10319;-70
2022/01/04 07:00:13;;;;;;;;;12.20;12.20;;;;;;;;5294572;27;8786;-73
2022/01/04 07:02:44;;;;;;;;;12.50;11.25;;;;;;;;5277900;27;8804;-70
2022/01/04 07:05:15;;;;;;;;;9.00;9.00;;;;;;;;5294343;27;8931;-69
2022/01/04 07:12:16;;;;;;;;;9.00;9.00;;;;;;;;5312728;27;9392;-71
2022/01/04 07:14:47;;;;;;;;;13.50;13.50;;;;;;;;5277641;27;8786;-69
2022/01/04 07:17:18;;;;;;;;;12.00;12.00;;;;;;;;5260541;27;8813;-68
2022/01/04 07:19:49;;;;;;;;;19.33;18.33;;;;;;;;5277737;27;8770;-70
2022/01/04 07:22:21;;;;;;;;;34.50;30.75;;;;;;;;5260369;27;9215;-70
2022/01/04 07:24:52;;;;;;;;;51.67;45.67;;;;;;;;5260094;27;8778;-69
2022/01/04 07:27:41;;;;;;;;;36.00;36.00;;;;;;;;5293904;27;8813;-70
2022/01/04 07:30:31;;;;;;;;;30.00;27.00;;;;;;;;5312570;27;8785;-69
2022/01/04 07:33:02;;;;;;;;;35.00;31.50;;;;;;;;5275668;27;8805;-70
2022/01/04 07:35:33;;;;;;;;;34.00;30.25;;;;;;;;5312587;27;8835;-70
2022/01/04 07:38:04;;;;;;;;;23.00;22.33;;;;;;;;5293828;27;8782;-70
2022/01/04 07:40:35;;;;;;;;;30.75;27.00;;;;;;;;5311918;27;11454;-70
2022/01/04 07:43:06;;;;;;;;;27.00;25.00;;;;;;;;5277652;27;8764;-70
2022/01/04 07:45:37;;;;;;;;;10.33;9.33;;;;;;;;5294003;27;9524;-69
2022/01/04 07:48:10;;;;;;;;;41.50;36.50;;;;;;;;5276861;27;10231;-70
2022/01/04 07:51:00;;;;;;;;;36.00;33.25;;;;;;;;5293976;27;8774;-70
2022/01/04 07:53:31;;;;;;;;;47.75;43.25;;;;;;;;5293176;27;8774;-70
2022/01/04 07:56:03;;;;;;;;;38.67;37.00;;;;;;;;5276559;27;8838;-70
2022/01/04 07:58:34;;;;;;;;;49.50;42.00;;;;;;;;5276427;27;8794;-70
2022/01/04 08:01:05;;;;;;;;;27.50;27.00;;;;;;;;5277342;27;8785;-70
2022/01/04 08:03:36;;;;;;;;;27.00;25.67;;;;;;;;5312300;27;8806;-71
2022/01/04 08:06:07;;;;;;;;;21.33;19.67;;;;;;;;5311678;27;8766;-70
2022/01/04 08:08:37;;;;;;;;;33.67;33.33;;;;;;;;5276484;27;8794;-65
2022/01/04 08:11:08;;;;;;;;;10.33;10.00;;;;;;;;5276437;27;9523;-69
2022/01/04 08:13:39;;;;;;;;;29.33;27.33;;;;;;;;5275928;27;8766;-73
2022/01/04 08:20:34;;;;;;;;;12.25;12.00;;;;;;;;5311235;27;8805;-73
2022/01/04 08:23:04;;;;;;;;;20.67;20.00;;;;;;;;5275976;27;8904;-73
2022/01/04 08:25:35;;;;;;;;;21.33;21.00;;;;;;;;5292787;27;8885;-74
2022/01/04 08:28:06;;;;;;;;;9.67;9.00;;;;;;;;5276173;27;8814;-74
2022/01/04 08:30:37;;;;;;;;;17.00;14.67;;;;;;;;5293051;27;8777;-72
2022/01/04 08:33:09;;;;;;;;;8.33;8.33;;;;;;;;5259193;27;9598;-74
2022/01/04 08:35:41;;;;;;;;;10.00;10.00;;;;;;;;5258802;27;8778;-74
2022/01/04 08:38:12;;;;;;;;;17.50;17.00;;;;;;;;5276677;27;8778;-74
2022/01/04 08:40:43;;;;;;;;;3.50;3.50;;;;;;;;5258671;27;8776;-74
2022/01/04 08:43:14;;;;;;;;;12.00;10.67;;;;;;;;5258982;27;9489;-74
2022/01/04 08:45:45;;;;;;;;;6.50;5.25;;;;;;;;5292466;27;9947;-74
2022/01/04 08:48:34;;;;;;;;;4.00;4.00;;;;;;;;5278444;27;8782;-73
2022/01/04 08:51:05;;;;;;;;;9.00;9.00;;;;;;;;5258261;27;8784;-72
2022/01/04 08:53:36;;;;;;;;;13.00;13.00;;;;;;;;5275522;27;8804;-73
2022/01/04 08:56:07;;;;;;;;;6.33;6.33;;;;;;;;5275442;27;8842;-73
2022/01/04 08:58:38;;;;;;;;;4.00;4.00;;;;;;;;5292255;27;8858;-71
2022/01/04 09:01:09;;;;;;;;;7.00;6.67;;;;;;;;5292731;27;8778;-73
2022/01/04 09:03:39;;;;;;;;;10.67;9.33;;;;;;;;5275022;27;9481;-72
2022/01/04 09:06:11;;;;;;;;;9.33;9.33;;;;;;;;5292323;27;8759;-73
2022/01/04 09:08:42;;;;;;;;;4.00;4.00;;;;;;;;5310744;27;8782;-74
2022/01/04 09:11:15;;;;;;;;;10.00;10.00;;;;;;;;5275139;27;8786;-74
2022/01/04 09:13:46;;;;;;;;;7.40;7.40;;;;;;;;5292007;27;9508;-73
2022/01/04 09:19:06;;;;;;;;;6.50;6.50;;;;;;;;5292206;27;8794;-72
2022/01/04 09:21:37;;;;;;;;;9.80;9.40;;;;;;;;5274933;27;8779;-72
2022/01/04 09:24:08;;;;;;;;;6.00;6.00;;;;;;;;5310490;27;8859;-71
2022/01/04 09:26:39;;;;;;;;;6.50;6.50;;;;;;;;5275113;27;9489;-75
2022/01/04 09:29:10;;;;;;;;;12.67;12.33;;;;;;;;5257967;27;8770;-75
2022/01/04 09:31:41;;;;;;;;;11.33;11.33;;;;;;;;5275134;27;11178;-74
2022/01/04 09:34:12;;;;;;;;;9.67;9.67;;;;;;;;5257702;27;11483;-74
2022/01/04 09:37:01;;;;;;;;;6.75;6.50;;;;;;;;5278347;27;8874;-73
2022/01/04 09:39:32;;;;;;;;;13.67;12.67;;;;;;;;5257779;27;8779;-74
2022/01/04 09:42:03;;;;;;;;;13.00;13.00;;;;;;;;5274254;27;8763;-73
2022/01/04 09:44:35;;;;;;;;;4.00;4.00;;;;;;;;5291910;27;8858;-73
2022/01/04 09:47:24;;;;;;;;;16.00;15.50;;;;;;;;5291737;27;8802;-72
2022/01/04 09:49:54;;;;;;;;;17.33;15.00;;;;;;;;5258310;27;9461;-73
2022/01/04 09:52:25;;;;;;;;;19.33;17.67;;;;;;;;5274605;27;8783;-73
2022/01/04 09:54:56;;;;;;;;;7.33;7.33;;;;;;;;5274623;27;11401;-73
2022/01/04 09:57:27;;;;;;;;;14.00;13.75;;;;;;;;5290732;27;11412;-75
2022/01/04 09:59:58;;;;;;;;;13.00;13.00;;;;;;;;5257945;27;8790;-72
2022/01/04 10:02:52;;;;;;;;;12.00;12.00;;;;;;;;5309526;27;8774;-73
2022/01/04 10:05:25;;;;;;;;;15.75;15.75;;;;;;;;5291219;27;8763;-72
2022/01/04 10:08:00;;;;;;;;;6.25;6.25;;;;;;;;5274359;27;8831;-72
2022/01/04 10:10:31;;;;;;;;;7.50;7.50;;;;;;;;5274200;27;8782;-70
2022/01/04 10:13:07;;;;;;;;;9.50;9.25;;;;;;;;5274513;27;8782;-71
2022/01/04 10:20:04;;;;;;;;;11.00;11.00;;;;;;;;5309309;27;8707;-74
2022/01/04 10:22:36;;;;;;;;;7.00;7.00;;;;;;;;5275046;27;8762;-73
2022/01/04 10:25:09;;;;;;;;;7.75;7.75;;;;;;;;5309806;27;9610;-75
2022/01/04 10:32:10;;;;;;;;;17.25;17.25;;;;;;;;5311808;27;8726;-73
2022/01/04 10:34:46;;;;;;;;;12.50;12.50;;;;;;;;5276933;27;8765;-72
2022/01/04 10:42:10;;;;;;;;;22.50;21.75;;;;;;;;5305038;28;8728;-73
2022/01/04 10:45:06;;;;;;;;;14.50;14.50;;;;;;;;5270239;27;8806;-73
2022/01/04 10:47:37;;;;;;;;;44.00;42.00;;;;;;;;5287195;27;8821;-70
2022/01/04 10:53:57;;;;;;;;;9.25;9.25;;;;;;;;5270921;28;8807;-74
2022/01/04 10:56:32;;;;;;;;;14.75;14.50;;;;;;;;5253744;28;8780;-73
2022/01/04 10:59:07;;;;;;;;;11.75;11.75;;;;;;;;5236311;28;8819;-73
2022/01/04 11:01:40;;;;;;;;;12.50;12.50;;;;;;;;5253158;28;9503;-72
2022/01/04 11:04:29;;;;;;;;;17.75;17.75;;;;;;;;5286500;28;8807;-75
2022/01/04 11:07:01;;;;;;;;;14.00;13.25;;;;;;;;5269901;28;8847;-73
2022/01/04 11:09:32;;;;;;;;;18.50;17.25;;;;;;;;5273435;28;8784;-72
2022/01/04 11:12:03;;;;;;;;;10.33;10.33;;;;;;;;5273192;28;9571;-72
2022/01/04 11:14:53;;;;;;;;;17.00;17.00;;;;;;;;5256050;28;8776;-73
2022/01/04 11:17:25;;;;;;;;;14.00;14.00;;;;;;;;5273470;28;8792;-74
2022/01/04 11:19:56;;;;;;;;;18.67;18.33;;;;;;;;5273032;28;8788;-73
2022/01/04 11:22:27;;;;;;;;;18.25;17.25;;;;;;;;5252143;28;8778;-72
2022/01/04 11:25:01;;;;;;;;;15.33;13.00;;;;;;;;5272953;28;8776;-74
2022/01/04 11:27:36;;;;;;;;;21.50;20.00;;;;;;;;5256466;28;8819;-68
2022/01/04 11:34:41;;;;;;;;;22.75;19.75;;;;;;;;5290822;28;8709;-71
2022/01/04 11:37:17;;;;;;;;;33.25;29.75;;;;;;;;5255924;28;8781;-70
2022/01/04 11:39:51;;;;;;;;;25.50;24.50;;;;;;;;5255973;27;8781;-70
2022/01/04 11:42:31;;;;;;;;;36.25;34.25;;;;;;;;5255747;28;8777;-70
2022/01/04 11:45:03;;;;;;;;;45.75;41.25;;;;;;;;5239387;28;8796;-70
2022/01/04 11:47:37;;;;;;;;;26.75;25.75;;;;;;;;5255618;28;8824;-70
2022/01/04 11:50:16;;;;;;;;;41.50;38.50;;;;;;;;5272300;28;8795;-70
2022/01/04 11:52:52;;;;;;;;;51.00;47.33;;;;;;;;5239542;28;8760;-69
2022/01/04 11:55:29;;;;;;;;;57.67;52.00;;;;;;;;5255773;28;9321;-71
2022/01/04 11:58:14;;;;;;;;;41.67;38.67;;;;;;;;5272376;28;9533;-69
2022/01/04 12:00:48;;;;;;;;;62.33;53.33;;;;;;;;5255516;28;9800;-70
2022/01/04 12:03:39;;;;;;;;;52.33;45.67;;;;;;;;5257993;28;9203;-70
2022/01/04 12:06:10;;;;;;;;;80.67;63.33;;;;;;;;5272091;28;9215;-69
2022/01/04 12:08:50;;;;;;;;;53.33;48.33;;;;;;;;5272156;28;9779;-69
2022/01/04 12:11:37;;;;;;;;;70.00;58.67;;;;;;;;5238651;28;9729;-70
2022/01/04 12:14:22;;;;;;;;;99.50;74.75;;;;;;;;5272302;28;9864;-70
2022/01/04 12:17:04;;;;;;;;;75.00;61.00;;;;;;;;5238438;28;10671;-71
2022/01/04 12:19:48;;;;;;;;;68.25;54.00;;;;;;;;5255018;28;10197;-71
2022/01/04 12:22:32;;;;;;;;;78.50;64.50;;;;;;;;5272228;28;10419;-70
2022/01/04 12:25:05;;;;;;;;;93.00;70.50;;;;;;;;5254870;28;10682;-70
2022/01/04 12:27:40;;;;;;;;;78.00;62.50;;;;;;;;5272150;28;11222;-70
2022/01/04 12:30:25;;;;;;;;;65.25;53.00;;;;;;;;5254838;28;10293;-70
2022/01/04 12:33:31;;;;;;;;;61.00;48.75;;;;;;;;5254777;28;10066;-70
2022/01/04 12:36:05;;;;;;;;;68.25;59.00;;;;;;;;5182983;28;9987;-71
2022/01/04 12:38:39;;;;;;;;;78.50;63.25;;;;;;;;5257991;27;10151;-71
2022/01/04 12:41:14;;;;;;;;;64.50;51.50;;;;;;;;5309133;27;10205;-70
2022/01/04 12:48:08;;;;;;;;;39.67;39.33;;;;;;;;5310219;27;9104;-70
2022/01/04 12:55:08;;;;;;;;;33.00;33.00;;;;;;;;5310528;27;8703;-71
2022/01/04 12:57:39;;;;;;;;;78.50;61.25;;;;;;;;5310331;27;10236;-70
2022/01/04 13:00:14;;;;;;;;;100.25;75.25;;;;;;;;5292521;27;10535;-69
2022/01/04 13:02:45;;;;;;;;;95.00;75.75;;;;;;;;5275789;27;9421;-70
2022/01/04 13:05:18;;;;;;;;;78.50;64.75;;;;;;;;5292274;27;11392;-70
2022/01/04 13:08:24;;;;;;;;;78.25;60.00;;;;;;;;5292280;27;8826;-69
2022/01/04 13:11:15;;;;;;;;;72.25;59.50;;;;;;;;5292501;27;10512;-69
2022/01/04 13:14:00;;;;;;;;;55.00;48.75;;;;;;;;5291524;27;10210;-70
2022/01/04 13:16:34;;;;;;;;;53.00;48.67;;;;;;;;5293042;27;9826;-70
2022/01/04 13:19:23;;;;;;;;;48.33;45.33;;;;;;;;5292288;27;9716;-70
2022/01/04 13:21:59;;;;;;;;;35.67;34.33;;;;;;;;5291919;27;9622;-70
2022/01/04 13:28:21;;;;;;;;;49.67;45.33;;;;;;;;5270588;28;9261;-70
2022/01/04 13:30:52;;;;;;;;;54.33;44.67;;;;;;;;5252950;28;9175;-68
2022/01/04 13:37:47;;;;;;;;;62.00;49.00;;;;;;;;5288502;28;8709;-69
2022/01/04 13:40:19;;;;;;;;;61.50;46.50;;;;;;;;5253664;28;9791;-70
2022/01/04 13:43:00;;;;;;;;;72.75;58.00;;;;;;;;5270300;28;9868;-69
2022/01/04 13:45:44;;;;;;;;;48.25;42.25;;;;;;;;5236975;28;10072;-70
2022/01/04 13:48:26;;;;;;;;;51.75;48.25;;;;;;;;5270566;28;10079;-71
2022/01/04 13:51:07;;;;;;;;;57.00;49.25;;;;;;;;5253197;28;9882;-70
2022/01/04 13:53:59;;;;;;;;;45.33;42.67;;;;;;;;5256227;28;9778;-70
2022/01/04 13:56:31;;;;;;;;;56.33;48.33;;;;;;;;5253331;28;9415;-74
2022/01/04 13:59:02;;;;;;;;;50.67;44.00;;;;;;;;5236721;28;9646;-74
2022/01/04 14:01:35;;;;;;;;;31.67;30.33;;;;;;;;5253549;28;9469;-71
2022/01/04 14:04:09;;;;;;;;;36.33;35.67;;;;;;;;5236411;28;9693;-71
2022/01/04 14:07:03;;;;;;;;;23.00;23.00;;;;;;;;5270143;28;9882;-71
2022/01/04 14:09:35;;;;;;;;;43.00;36.67;;;;;;;;5269676;28;9048;-71
2022/01/04 14:12:11;;;;;;;;;53.25;47.00;;;;;;;;5253694;28;9448;-72
2022/01/04 14:14:46;;;;;;;;;69.00;57.25;;;;;;;;5270437;28;10474;-71
2022/01/04 14:17:23;;;;;;;;;41.75;41.50;;;;;;;;5253892;28;10193;-74
2022/01/04 14:19:55;;;;;;;;;75.50;60.75;;;;;;;;5253762;28;10406;-74
2022/01/04 14:22:27;;;;;;;;;44.50;43.50;;;;;;;;5236509;28;10598;-74
2022/01/04 14:25:22;;;;;;;;;79.00;64.00;;;;;;;;5272843;28;10272;-73
2022/01/04 14:27:54;;;;;;;;;92.00;69.75;;;;;;;;5253220;28;10876;-73
2022/01/04 14:30:43;;;;;;;;;68.25;52.50;;;;;;;;5255573;28;10788;-72
2022/01/04 14:33:14;;;;;;;;;69.00;53.50;;;;;;;;5269727;28;10141;-73
2022/01/04 14:35:45;;;;;;;;;69.75;59.00;;;;;;;;5269631;28;8806;-73
2022/01/04 14:38:16;;;;;;;;;61.25;51.75;;;;;;;;5252948;28;8911;-73
2022/01/04 14:41:05;;;;;;;;;59.00;52.00;;;;;;;;5273013;28;8760;-74
2022/01/04 14:43:36;;;;;;;;;69.50;57.50;;;;;;;;5256154;28;10121;-73
2022/01/04 14:46:07;;;;;;;;;63.75;54.25;;;;;;;;5273792;28;11433;-72
2022/01/04 14:48:56;;;;;;;;;75.75;58.25;;;;;;;;5259144;28;8791;-74
2022/01/04 14:51:47;;;;;;;;;73.50;61.50;;;;;;;;5275977;28;10397;-73
2022/01/04 14:54:17;;;;;;;;;68.50;55.50;;;;;;;;5292065;28;10587;-71
2022/01/04 14:56:48;;;;;;;;;43.67;39.33;;;;;;;;5292294;28;10379;-72
2022/01/04 14:59:19;;;;;;;;;74.00;54.50;;;;;;;;5257095;28;8808;-73
2022/01/04 15:01:50;;;;;;;;;125.75;95.00;;;;;;;;5291785;28;8877;-73
2022/01/04 15:04:21;;;;;;;;;81.00;65.25;;;;;;;;5291523;28;8857;-73
2022/01/04 15:06:56;;;;;;;;;72.25;56.50;;;;;;;;5241769;28;11522;-73
2022/01/04 15:09:26;;;;;;;;;65.75;53.25;;;;;;;;5242138;28;10458;-72
2022/01/04 15:11:57;;;;;;;;;62.50;51.75;;;;;;;;5293193;28;10090;-75
2022/01/04 15:14:28;;;;;;;;;47.33;42.67;;;;;;;;5273312;28;8796;-72
2022/01/04 15:16:59;;;;;;;;;44.00;43.33;;;;;;;;5273426;28;10293;-72
2022/01/04 15:23:53;;;;;;;;;34.67;24.67;;;;;;;;5291118;28;8700;-70
2022/01/04 15:26:24;;;;;;;;;31.67;31.67;;;;;;;;5255820;27;8871;-72
2022/01/04 15:28:55;;;;;;;;;22.00;21.00;;;;;;;;5273431;28;8776;-72
2022/01/04 15:31:26;;;;;;;;;34.33;29.00;;;;;;;;5291400;28;9510;-72
2022/01/04 15:33:56;;;;;;;;;41.33;39.00;;;;;;;;5256151;28;8800;-72
2022/01/04 15:40:51;;;;;;;;;42.00;39.33;;;;;;;;5290792;28;8717;-70
2022/01/04 15:43:21;;;;;;;;;43.67;39.33;;;;;;;;5272920;28;9612;-70
2022/01/04 15:45:52;;;;;;;;;31.33;31.00;;;;;;;;5255808;28;8929;-69
2022/01/04 15:48:23;;;;;;;;;15.33;15.33;;;;;;;;5272994;28;8876;-69
2022/01/04 15:50:56;;;;;;;;;21.00;21.00;;;;;;;;5272610;28;8784;-68
2022/01/04 15:53:28;;;;;;;;;17.50;16.75;;;;;;;;5255021;28;8786;-68
2022/01/04 15:55:58;;;;;;;;;14.75;14.25;;;;;;;;5272907;28;9598;-72
2022/01/04 15:58:47;;;;;;;;;18.75;17.75;;;;;;;;5272274;28;8804;-71
2022/01/04 16:01:37;;;;;;;;;24.25;22.00;;;;;;;;5258852;28;8837;-72
2022/01/04 16:04:28;;;;;;;;;12.25;12.00;;;;;;;;5291500;28;8772;-71
2022/01/04 16:06:59;;;;;;;;;19.25;19.25;;;;;;;;5255396;28;8800;-70
2022/01/04 16:09:31;;;;;;;;;32.33;31.33;;;;;;;;5255641;28;8873;-71
2022/01/04 16:12:02;;;;;;;;;29.00;27.50;;;;;;;;5255267;28;9626;-72
2022/01/04 16:14:34;;;;;;;;;36.00;30.75;;;;;;;;5271822;28;8779;-73
2022/01/04 16:17:21;;;;;;;;;33.00;31.50;;;;;;;;5255145;28;8780;-71
2022/01/04 16:22:42;;;;;;;;;44.25;40.25;;;;;;;;5272281;28;8960;-73
2022/01/04 16:25:12;;;;;;;;;35.33;34.00;;;;;;;;5272125;28;8985;-71
2022/01/04 16:27:43;;;;;;;;;28.00;26.33;;;;;;;;5254874;28;10201;-74
2022/01/04 16:30:14;;;;;;;;;18.00;16.67;;;;;;;;5265359;28;8780;-74
2022/01/04 16:32:45;;;;;;;;;14.33;13.67;;;;;;;;5271346;28;9494;-73
2022/01/04 16:35:16;;;;;;;;;18.33;16.33;;;;;;;;5271813;28;8852;-71
2022/01/04 16:37:48;;;;;;;;;17.00;10.75;;;;;;;;5271644;28;8797;-72
2022/01/04 16:40:23;;;;;;;;;28.75;26.50;;;;;;;;5254730;28;8757;-70
2022/01/04 16:42:55;;;;;;;;;24.25;24.00;;;;;;;;5271691;28;8811;-72
2022/01/04 16:45:26;;;;;;;;;16.75;13.50;;;;;;;;5271587;28;8810;-70
2022/01/04 16:47:57;;;;;;;;;22.00;22.00;;;;;;;;5254866;28;8800;-72
2022/01/04 16:50:28;;;;;;;;;17.50;17.50;;;;;;;;5271675;28;8784;-71